地図

経路データ

SID SEASON NUMBER BASIN SUBBASIN NAME ISO_TIME NATURE LAT LON WMO_WIND WMO_PRES WMO_AGENCY TRACK_TYPE DIST2LAND LANDFALL IFLAG USA_AGENCY USA_ATCF_ID USA_LAT USA_LON USA_RECORD USA_STATUS USA_WIND USA_PRES USA_SSHS USA_R34_NE USA_R34_SE USA_R34_SW USA_R34_NW USA_R50_NE USA_R50_SE USA_R50_SW USA_R50_NW USA_R64_NE USA_R64_SE USA_R64_SW USA_R64_NW USA_POCI USA_ROCI USA_RMW USA_EYE TOKYO_LAT TOKYO_LON TOKYO_GRADE TOKYO_WIND TOKYO_PRES TOKYO_R50_DIR TOKYO_R50_LONG TOKYO_R50_SHORT TOKYO_R30_DIR TOKYO_R30_LONG TOKYO_R30_SHORT TOKYO_LAND CMA_LAT CMA_LON CMA_CAT CMA_WIND CMA_PRES HKO_LAT HKO_LON HKO_CAT HKO_WIND HKO_PRES NEWDELHI_LAT NEWDELHI_LON NEWDELHI_GRADE NEWDELHI_WIND NEWDELHI_PRES NEWDELHI_CI NEWDELHI_DP NEWDELHI_POCI REUNION_LAT REUNION_LON REUNION_TYPE REUNION_WIND REUNION_PRES REUNION_TNUM REUNION_CI REUNION_RMW REUNION_R34_NE REUNION_R34_SE REUNION_R34_SW REUNION_R34_NW REUNION_R50_NE REUNION_R50_SE REUNION_R50_SW REUNION_R50_NW REUNION_R64_NE REUNION_R64_SE REUNION_R64_SW REUNION_R64_NW BOM_LAT BOM_LON BOM_TYPE BOM_WIND BOM_PRES BOM_TNUM BOM_CI BOM_RMW BOM_R34_NE BOM_R34_SE BOM_R34_SW BOM_R34_NW BOM_R50_NE BOM_R50_SE BOM_R50_SW BOM_R50_NW BOM_R64_NE BOM_R64_SE BOM_R64_SW BOM_R64_NW BOM_ROCI BOM_POCI BOM_EYE BOM_POS_METHOD BOM_PRES_METHOD NADI_LAT NADI_LON NADI_CAT NADI_WIND NADI_PRES WELLINGTON_LAT WELLINGTON_LON WELLINGTON_WIND WELLINGTON_PRES DS824_LAT DS824_LON DS824_STAGE DS824_WIND DS824_PRES TD9636_LAT TD9636_LON TD9636_STAGE TD9636_WIND TD9636_PRES TD9635_LAT TD9635_LON TD9635_WIND TD9635_PRES TD9635_ROCI NEUMANN_LAT NEUMANN_LON NEUMANN_CLASS NEUMANN_WIND NEUMANN_PRES MLC_LAT MLC_LON MLC_CLASS MLC_WIND MLC_PRES USA_GUST BOM_GUST BOM_GUST_PER REUNION_GUST REUNION_GUST_PER USA_SEAHGT USA_SEARAD_NE USA_SEARAD_SE USA_SEARAD_SW USA_SEARAD_NW STORM_SPEED STORM_DIR
1913013S12154 1913 6 SP EA NOT_NAMED 1913-01-13 11:00:00 NR -12.1000 153.800 main 377 377 __________O___ -1 -12.1000 153.800 7 1 0
1913013S12154 1913 6 SP EA NOT_NAMED 1913-01-13 12:00:00 NR -12.1167 153.795 main 377 377 __________P___ -1 -12.1167 153.795 7 1 0
1913013S12154 1913 6 SP EA NOT_NAMED 1913-01-13 15:00:00 NR -12.1704 153.779 main 382 382 __________P___ -1 -12.1704 153.779 7 1 197
1913013S12154 1913 6 SP EA NOT_NAMED 1913-01-13 18:00:00 NR -12.2365 153.757 main 382 378 __________P___ -1 -12.2365 153.757 7 2 199
1913013S12154 1913 6 SP EA NOT_NAMED 1913-01-13 21:00:00 NR -12.3245 153.727 main 378 378 __________P___ -1 -12.3245 153.727 7 2 199
1913013S12154 1913 6 SP EA NOT_NAMED 1913-01-13 23:00:00 NR -12.4000 153.700 main 384 384 __________O___ -1 -12.4000 153.700 7 3 198
1913013S12154 1913 6 SP EA NOT_NAMED 1913-01-14 00:00:00 NR -12.4437 153.684 main 384 381 __________P___ -1 -12.4437 153.684 7 3 200
1913013S12154 1913 6 SP EA NOT_NAMED 1913-01-14 03:00:00 NR -12.5963 153.627 main 387 387 __________P___ -1 -12.5963 153.627 7 4 201
1913013S12154 1913 6 SP EA NOT_NAMED 1913-01-14 06:00:00 NR -12.7739 153.554 main 400 392 __________P___ -1 -12.7739 153.554 7 4 203
1913013S12154 1913 6 SP EA NOT_NAMED 1913-01-14 09:00:00 NR -12.9671 153.467 main 406 398 __________P___ -1 -12.9671 153.467 7 4 204
1913013S12154 1913 6 SP EA NOT_NAMED 1913-01-14 11:00:00 NR -13.1000 153.400 main 405 405 __________O___ -1 -13.1000 153.400 7 4 206
1913013S12154 1913 6 SP EA NOT_NAMED 1913-01-14 12:00:00 NR -13.1645 153.369 main 413 406 __________P___ -1 -13.1645 153.369 7 4 207
1913013S12154 1913 6 SP EA NOT_NAMED 1913-01-14 15:00:00 NR -13.3641 153.265 main 422 415 __________P___ -1 -13.3641 153.265 7 5 208
1913013S12154 1913 6 SP EA NOT_NAMED 1913-01-14 18:00:00 NR -13.5679 153.145 main 425 425 __________P___ -1 -13.5679 153.145 7 5 212
1913013S12154 1913 6 SP EA NOT_NAMED 1913-01-14 21:00:00 NR -13.7697 153.006 main 436 430 __________P___ -1 -13.7697 153.006 7 5 215
1913013S12154 1913 6 SP EA NOT_NAMED 1913-01-14 23:00:00 NR -13.9000 152.900 main 440 440 __________O___ -1 -13.9000 152.900 7 5 220
1913013S12154 1913 6 SP EA NOT_NAMED 1913-01-15 00:00:00 NR -13.9617 152.841 main 443 443 __________P___ -1 -13.9617 152.841 7 5 226
1913013S12154 1913 6 SP EA NOT_NAMED 1913-01-15 03:00:00 NR -14.1413 152.646 main 443 443 __________P___ -1 -14.1413 152.646 7 5 228
1913013S12154 1913 6 SP EA NOT_NAMED 1913-01-15 06:00:00 NR -14.3150 152.437 main 453 453 __________P___ -1 -14.3150 152.437 7 5 230
1913013S12154 1913 6 SP EA NOT_NAMED 1913-01-15 09:00:00 NR -14.4860 152.230 main 466 466 __________P___ -1 -14.4860 152.230 7 5 229
1913013S12154 1913 6 SP EA NOT_NAMED 1913-01-15 11:00:00 NR -14.6000 152.100 main 472 472 __________O___ -1 -14.6000 152.100 7 5 226
1913013S12154 1913 6 SP EA NOT_NAMED 1913-01-15 12:00:00 NR -14.6583 152.041 main 480 480 __________P___ -1 -14.6583 152.041 7 5 223
1913013S12154 1913 6 SP EA NOT_NAMED 1913-01-15 15:00:00 NR -14.8333 151.873 main 487 487 __________P___ -1 -14.8333 151.873 7 5 221
1913013S12154 1913 6 SP EA NOT_NAMED 1913-01-15 18:00:00 NR -15.0083 151.721 main 501 501 __________P___ -1 -15.0083 151.721 7 5 219
1913013S12154 1913 6 SP EA NOT_NAMED 1913-01-15 21:00:00 NR -15.1833 151.583 main 520 517 __________P___ -1 -15.1833 151.583 7 4 216
1913013S12154 1913 6 SP EA NOT_NAMED 1913-01-15 23:00:00 NR -15.3000 151.500 main 528 528 __________O___ -1 -15.3000 151.500 7 4 214
1913013S12154 1913 6 SP EA NOT_NAMED 1913-01-16 00:00:00 NR -15.3559 151.460 main 539 537 __________P___ -1 -15.3559 151.460 7 4 213
1913013S12154 1913 6 SP EA NOT_NAMED 1913-01-16 03:00:00 NR -15.5224 151.351 main 548 546 __________P___ -1 -15.5224 151.351 7 4 210
1913013S12154 1913 6 SP EA NOT_NAMED 1913-01-16 06:00:00 NR -15.6923 151.253 main 568 551 __________P___ -1 -15.6923 151.253 7 4 207
1913013S12154 1913 6 SP EA NOT_NAMED 1913-01-16 09:00:00 NR -15.8719 151.161 main 551 536 __________P___ -1 -15.8719 151.161 7 4 205
1913013S12154 1913 6 SP EA NOT_NAMED 1913-01-16 11:00:00 NR -16.0000 151.100 main 536 527 __________O___ -1 -16.0000 151.100 7 4 205
1913013S12154 1913 6 SP EA NOT_NAMED 1913-01-16 12:00:00 NR -16.0720 151.065 main 527 502 __________P___ -1 -16.0720 151.065 7 5 204
1913013S12154 1913 6 SP EA NOT_NAMED 1913-01-16 15:00:00 NR -16.3005 150.961 main 502 478 __________P___ -1 -16.3005 150.961 7 5 203
1913013S12154 1913 6 SP EA NOT_NAMED 1913-01-16 18:00:00 NR -16.5357 150.859 main 478 453 __________P___ -1 -16.5357 150.859 7 5 203
1913013S12154 1913 6 SP EA NOT_NAMED 1913-01-16 21:00:00 NR -16.7619 150.761 main 444 429 __________P___ -1 -16.7619 150.761 7 5 203
1913013S12154 1913 6 SP EA NOT_NAMED 1913-01-16 23:00:00 NR -16.9000 150.700 main 429 429 __________O___ -1 -16.9000 150.700 7 4 205
1913013S12154 1913 6 SP EA NOT_NAMED 1913-01-17 00:00:00 NR -16.9588 150.670 main 419 405 __________P___ -1 -16.9588 150.670 7 4 207
1913013S12154 1913 6 SP EA NOT_NAMED 1913-01-17 03:00:00 NR -17.1182 150.587 main 405 380 __________P___ -1 -17.1182 150.587 7 3 207
1913013S12154 1913 6 SP EA NOT_NAMED 1913-01-17 06:00:00 NR -17.2619 150.510 main 380 365 __________P___ -1 -17.2619 150.510 7 3 205
1913013S12154 1913 6 SP EA NOT_NAMED 1913-01-17 09:00:00 NR -17.4022 150.442 main 365 355 __________P___ -1 -17.4022 150.442 7 3 203
1913013S12154 1913 6 SP EA NOT_NAMED 1913-01-17 11:00:00 NR -17.5000 150.400 main 355 355 __________O___ -1 -17.5000 150.400 7 3 201
1913013S12154 1913 6 SP EA NOT_NAMED 1913-01-17 12:00:00 NR -17.5587 150.379 main 345 330 __________P___ -1 -17.5587 150.379 7 4 197
1913013S12154 1913 6 SP EA NOT_NAMED 1913-01-17 15:00:00 NR -17.7417 150.320 main 330 311 __________P___ -1 -17.7417 150.320 7 4 196
1913013S12154 1913 6 SP EA NOT_NAMED 1913-01-17 18:00:00 NR -17.9256 150.269 main 311 286 __________P___ -1 -17.9256 150.269 7 4 194
1913013S12154 1913 6 SP EA NOT_NAMED 1913-01-17 21:00:00 NR -18.0978 150.225 main 286 277 __________P___ -1 -18.0978 150.225 7 3 194
1913013S12154 1913 6 SP EA NOT_NAMED 1913-01-17 23:00:00 NR -18.2000 150.200 main 277 277 __________O___ -1 -18.2000 150.200 7 3 198
1913013S12154 1913 6 SP EA NOT_NAMED 1913-01-18 00:00:00 NR -18.2434 150.187 main 277 258 __________P___ -1 -18.2434 150.187 7 2 196
1913013S12154 1913 6 SP EA NOT_NAMED 1913-01-18 03:00:00 NR -18.3570 150.153 main 258 252 __________P___ -1 -18.3570 150.153 7 2 195
1913013S12154 1913 6 SP EA NOT_NAMED 1913-01-18 06:00:00 NR -18.4532 150.127 main 243 243 __________P___ -1 -18.4532 150.127 7 2 194
1913013S12154 1913 6 SP EA NOT_NAMED 1913-01-18 09:00:00 NR -18.5412 150.108 main 243 233 __________P___ -1 -18.5412 150.108 7 2 187
1913013S12154 1913 6 SP EA NOT_NAMED 1913-01-18 11:00:00 NR -18.6000 150.100 main 233 233 __________O___ -1 -18.6000 150.100 7 2 0
1913013S12154 1913 6 SP EA NOT_NAMED 1913-01-18 12:00:00 NR -18.6149 150.087 main 233 233 __________P___ -1 -18.6149 150.087 7 1 221
1913013S12154 1913 6 SP EA NOT_NAMED 1913-01-18 15:00:00 NR -18.6518 150.049 main 218 218 __________P___ -1 -18.6518 150.049 7 1 208
1913013S12154 1913 6 SP EA NOT_NAMED 1913-01-18 18:00:00 NR -18.7137 150.031 main 218 209 __________P___ -1 -18.7137 150.031 7 2 0
1913013S12154 1913 6 SP EA NOT_NAMED 1913-01-18 21:00:00 NR -18.8476 150.052 main 216 199 __________P___ -1 -18.8476 150.052 7 4 167
1913013S12154 1913 6 SP EA NOT_NAMED 1913-01-18 23:00:00 NR -19.0000 150.100 main 199 191 __________O___ -1 -19.0000 150.100 7 6 164
1913013S12154 1913 6 SP EA NOT_NAMED 1913-01-19 00:00:00 NR -19.1376 150.137 main 191 171 __________P___ -1 -19.1376 150.137 7 10 164
1913013S12154 1913 6 SP EA NOT_NAMED 1913-01-19 03:00:00 NR -19.6452 150.291 main 175 162 __________P___ -1 -19.6452 150.291 7 11 162
1913013S12154 1913 6 SP EA NOT_NAMED 1913-01-19 06:00:00 NR -20.2004 150.496 main 168 160 __________P___ -1 -20.2004 150.496 7 11 158
1913013S12154 1913 6 SP EA NOT_NAMED 1913-01-19 09:00:00 NR -20.6811 150.733 main 162 162 __________P___ -1 -20.6811 150.733 7 10 152
1913013S12154 1913 6 SP EA NOT_NAMED 1913-01-19 11:00:00 NR -20.9000 150.900 main 168 159 __________O___ -1 -20.9000 150.900 7 7 141
1913013S12154 1913 6 SP EA NOT_NAMED 1913-01-19 12:00:00 NR -20.9667 150.984 main 159 159 __________P___ -1 -20.9667 150.984 7 5 109
1913013S12154 1913 6 SP EA NOT_NAMED 1913-01-19 15:00:00 NR -21.0075 151.235 main 164 164 __________P___ -1 -21.0075 151.235 7 5 78
1913013S12154 1913 6 SP EA NOT_NAMED 1913-01-19 18:00:00 NR -20.8633 151.486 main 186 186 __________P___ -1 -20.8633 151.486 7 6 49
1913013S12154 1913 6 SP EA NOT_NAMED 1913-01-19 21:00:00 NR -20.6034 151.735 main 226 226 __________P___ -1 -20.6034 151.735 7 7 40
1913013S12154 1913 6 SP EA NOT_NAMED 1913-01-19 23:00:00 NR -20.4000 151.900 main 255 __________O___ -1 -20.4000 151.900 7 8 37

デジタル台風データ・検索

IBTrACS Databaseについて

本データベースは、米国NOAAが公開する1842年以降の世界の熱帯低気圧のベストトラックデータアーカイブInternational Best Track Archive for Climate Stewardship (IBTrACS)を、ウェブで閲覧しやすい形式に変換したものです。

最終更新日:2021-10-25